• Join FlightAware (Why Join?)
  • Login
  • US Flag 
03:15AM EST


 

Airport Tracker/Info


-or-


 

Live Flight TrackerFlight Track Log ✈ UAL822 ✈ 22-Jun-2013 ✈ KDEN - KIAD

Flight Track Log - Related Links

Times and Time Zones

All times are in EDT time to prevent confusion due to time zone crossing. See the UAL822 flight status page for this flight to view local times or setup timezone preferences in your user account.

Time Position Orientation Groundspeed Altitude Reporting Facility
EDT Latitude Longitude Course Direction KTS MPH feet Rate Location/Type
10:11PM 39.8775 -104.5783 72° East 187 215 6,800  Level Denver Center
10:12PM 39.8764 -104.4728 91° East 249 287 8,200 1,440 Climbing Denver Center
10:13PM 39.8667 -104.2140 90° East  Level FlightAware Approximate
10:13PM 39.8758 -104.3708 90° East 279 321 9,800  Level Denver Center
10:14PM 39.8667 -104.0627 90° East  Level FlightAware Approximate
10:14PM 39.8775 -104.2533 89° East 323 372 13,000  Level Denver Center
10:15PM 39.8667 -103.9114 90° East  Level FlightAware Approximate
10:15PM 39.8794 -104.1172 89° East 353 406 15,800  Level Denver Center
10:16PM 39.8761 -103.7621 72° East  Level FlightAware Approximate
10:16PM 39.8803 -103.9806 90° East 379 436 19,200  Level Denver Center
10:17PM 39.8822 -103.8383 89° East 397 457 21,900 2,580 Climbing Denver Center
10:18PM 39.8869 -103.6908 88° East 399 459 24,600 1,860 Climbing Denver Center
10:19PM 39.9056 -103.5392 81° East 424 488 25,800 1,020 Climbing Denver Center
10:20PM 39.9244 -103.3739 81° East 458 527 26,800 1,140 Climbing Denver Center
10:21PM 39.9444 -103.2058 81° East 469 540 28,200 780 Climbing Denver Center
10:23PM 39.9628 -103.0317 82° East 484 557 28,500 780 Climbing Denver Center
10:24PM 39.9867 -102.8175 82° East 497 572 29,800 840 Climbing Denver Center
10:25PM 40.0058 -102.6431 82° East 504 580 30,300 780 Climbing Denver Center
10:26PM 40.0233 -102.4672 83° East 510 587 31,500 1,200 Climbing Denver Center
10:27PM 40.0447 -102.2622 82° East 512 589 32,800 1,200 Climbing Denver Center
10:28PM 40.0625 -102.0881 82° East 508 585 34,000 1,020 Climbing Denver Center
10:29PM 40.0822 -101.8897 83° East 495 570 35,000 480 Climbing Denver Center
10:30PM 40.0972 -101.7306 83° East 468 539 35,000  Level Denver Center
10:31PM 40.1136 -101.5658 83° East 477 549 35,000  Level Denver Center
10:32PM 40.1322 -101.3686 83° East 490 564 35,000  Level Denver Center
10:33PM 40.1547 -101.1400 83° East 499 574 35,000  Level Denver Center
10:34PM 40.1694 -100.9667 84° East 504 580 35,000  Level Denver Center
10:35PM 40.1858 -100.7931 83° East 505 581 35,000  Level Denver Center
10:36PM 40.2053 -100.5917 83° East 504 580 35,000  Level Denver Center
10:37PM 40.2383 -100.4219 76° East 506 582 35,000  Level Denver Center
10:38PM 40.2786 -100.2269 75° East 501 577 35,000  Level Denver Center
10:39PM 40.3117 -100.0611 75° East 495 570 35,000  Level Denver Center
10:40PM 40.3450 -99.8947 75° East 495 570 35,000  Level Denver Center
10:41PM 40.3861 -99.6889 75° East 499 574 35,000  Level Denver Center
10:42PM 40.4200 -99.5128 76° East 500 575 35,000  Level Denver Center
10:43PM 40.4544 -99.3361 76° East 502 578 35,000  Level Denver Center
10:44PM 40.4878 -99.1597 76° East 501 577 35,000  Level Denver Center
10:45PM 40.5208 -98.9853 76° East 500 575 35,000  Level Minneapolis Center
10:46PM 40.5608 -98.7756 76° East 497 572 35,000  Level Minneapolis Center
10:47PM 40.5939 -98.6019 76° East 495 570 35,000  Level Minneapolis Center
10:49PM 40.6325 -98.3917 76° East 496 571 35,000  Level Minneapolis Center
10:50PM 40.6644 -98.2150 77° East 498 573 35,000  Level Minneapolis Center
10:51PM 40.7014 -98.0072 77° East 491 565 35,000  Level Minneapolis Center
10:52PM 40.7336 -97.8314 76° East 494 568 35,000  Level Minneapolis Center
10:53PM 40.7644 -97.6544 77° East 496 571 35,000  Level Minneapolis Center
10:54PM 40.7953 -97.4794 77° East 493 567 35,000  Level Minneapolis Center
10:55PM 40.8297 -97.2861 77° East 491 565 35,000  Level Minneapolis Center
10:56PM 40.8594 -97.1092 77° East 494 568 35,000  Level Minneapolis Center
10:57PM 40.8894 -96.9350 77° East 490 564 35,000  Level Minneapolis Center
10:58PM 40.9186 -96.7608 77° East 488 562 35,000  Level Minneapolis Center
10:59PM 40.9339 -96.5839 83° East 487 560 35,000  Level Minneapolis Center
11:00PM 40.9428 -96.4078 86° East 485 558 35,000  Level Minneapolis Center
11:01PM 40.9539 -96.2306 85° East 487 560 35,000  Level Minneapolis Center
11:02PM 40.9647 -96.0539 85° East 487 560 35,000  Level Minneapolis Center
11:03PM 40.9744 -95.8767 86° East 489 563 35,000  Level Minneapolis Center
11:04PM 40.9867 -95.6617 86° East 492 566 35,000  Level Minneapolis Center
11:05PM 40.9964 -95.4822 86° East 493 567 35,000  Level Minneapolis Center
11:06PM 41.0044 -95.3403 86° East 490 564 35,000  Level Minneapolis Center
11:07PM 41.0161 -95.1269 86° East 487 560 35,000  Level Minneapolis Center
11:08PM 41.0239 -94.9472 87° East 490 564 35,000  Level Minneapolis Center
11:09PM 41.0325 -94.7681 86° East 490 564 35,000  Level Minneapolis Center
11:10PM 41.0406 -94.5875 87° East 493 567 35,000  Level Minneapolis Center
11:11PM 41.0481 -94.4181 87° East 492 566 35,000  Level Minneapolis Center
11:12PM 41.0553 -94.2389 87° East 491 565 35,000  Level Minneapolis Center
11:13PM 41.0628 -94.0625 87° East 487 560 35,000  Level Minneapolis Center
11:14PM 41.0686 -93.9197 87° East 487 560 35,000  Level Minneapolis Center
11:15PM 41.0789 -93.6711 87° East 486 559 35,000  Level Minneapolis Center
11:16PM 41.0856 -93.4936 87° East 486 559 35,000  Level Minneapolis Center
11:17PM 41.0917 -93.3147 87° East 487 560 35,000  Level Minneapolis Center
11:18PM 41.1225 -93.1436 76° East 485 558 35,000  Level Minneapolis Center
11:19PM 41.1658 -93.0153 66° East 475 547 35,000  Level Chicago Center
11:20PM 41.2267 -92.8572 63° Northeast 481 554 35,000  Level Chicago Center
11:21PM 41.2886 -92.7000 62° Northeast 483 556 35,000  Level Chicago Center
11:22PM 41.3050 -92.5294 83° East 473 544 35,000  Level Chicago Center
11:23PM 41.2903 -92.3403 96° East 463 533 35,000  Level Chicago Center
11:24PM 41.2756 -92.1703 97° East 469 540 35,000  Level Chicago Center
11:25PM 41.2611 -91.9981 96° East 474 545 35,000  Level Chicago Center
11:26PM 41.2472 -91.8283 96° East 469 540 35,000  Level Chicago Center
11:27PM 41.2333 -91.6633 96° East 465 535 35,000  Level Chicago Center
11:28PM 41.2164 -91.4897 97° East 471 542 35,000  Level Chicago Center
11:29PM 41.2014 -91.3172 97° East 472 543 35,000  Level Chicago Center
11:30PM 41.1867 -91.1467 96° East 467 537 35,000  Level Chicago Center
11:31PM 41.1692 -90.9736 98° East 471 542 35,000  Level Chicago Center
11:32PM 41.1531 -90.8019 97° East 469 540 35,000  Level Chicago Center
11:33PM 41.1369 -90.6314 97° East 466 536 35,000  Level Chicago Center
11:34PM 41.1203 -90.4564 97° East 475 547 35,000  Level Chicago Center
11:35PM 41.1036 -90.2814 97° East 477 549 35,000  Level Chicago Center
11:36PM 41.0858 -90.1086 98° East 472 543 35,000  Level Chicago Center
11:37PM 41.0678 -89.9347 98° East 474 545 35,000  Level Chicago Center
11:38PM 41.0506 -89.7639 98° East 465 535 35,000  Level Chicago Center
11:39PM 41.0331 -89.5942 98° East 461 531 35,000  Level Chicago Center
11:40PM 41.0142 -89.4233 98° East 466 536 35,000  Level Chicago Center
11:41PM 40.9947 -89.2575 99° East 456 525 35,000  Level Chicago Center
11:42PM 40.9758 -89.0900 98° East 458 527 35,000  Level Chicago Center
11:43PM 40.9564 -88.9233 99° East 457 526 35,000  Level Chicago Center
11:44PM 40.9347 -88.7356 99° East 455 524 35,000  Level Chicago Center
11:45PM 40.9167 -88.5725 98° East 457 526 35,000  Level Chicago Center
11:46PM 40.8981 -88.4083 98° East 458 527 35,000  Level Chicago Center
11:47PM 40.8789 -88.2456 99° East 458 527 35,000  Level Chicago Center
11:48PM 40.8589 -88.0814 99° East 461 531 35,000  Level Chicago Center
11:49PM 40.8403 -87.9181 99° East 458 527 35,000  Level Chicago Center
11:50PM 40.8197 -87.7561 99° East 455 524 35,000  Level Chicago Center
11:51PM 40.8008 -87.5947 99° East 451 519 35,000  Level Chicago Center
11:52PM 40.7764 -87.4017 99° East 450 518 35,000  Level Chicago Center
11:53PM 40.7550 -87.2408 100° East 451 519 35,000  Level Chicago Center
11:54PM 40.7339 -87.0786 100° East 452 520 35,000  Level Chicago Center
11:55PM 40.7136 -86.9183 99° East 451 519 35,000  Level Chicago Center
11:56PM 40.6917 -86.7542 100° East 449 517 35,000  Level Chicago Center
11:57PM 40.6700 -86.5925 100° East 448 516 35,000  Level Chicago Center
11:58PM 40.6489 -86.4314 100° East 446 513 35,000  Level Chicago Center
11:59PM 40.6269 -86.2692 100° East 448 516 35,000  Level Chicago Center
12:00AM 40.6047 -86.1067 100° East 451 519 35,000  Level Chicago Center
12:01AM 40.5828 -85.9444 100° East 450 518 35,000  Level Chicago Center
12:02AM 40.5608 -85.7831 100° East 449 517 35,000  Level Chicago Center
12:03AM 40.5378 -85.6214 101° East 450 518 35,000  Level Chicago Center
12:04AM 40.5142 -85.4603 101° East 449 517 35,000  Level Chicago Center
12:05AM 40.4908 -85.3008 101° East 446 513 35,000  Level Chicago Center
12:06AM 40.4683 -85.1428 101° East 443 510 35,000  Level Chicago Center
12:07AM 40.4475 -85.0147 102° East 441 507 35,000  Level Indianapolis Center
12:08AM 40.4258 -84.8633 101° East 441 507 35,000  Level Indianapolis Center
12:09AM 40.4008 -84.7058 102° East 439 505 35,000  Level Indianapolis Center
12:10AM 40.3775 -84.5478 101° East 437 503 35,000  Level Indianapolis Center
12:11AM 40.3528 -84.3922 102° East 432 497 35,000  Level Indianapolis Center
12:12AM 40.3289 -84.2361 101° East 432 497 35,000  Level Indianapolis Center
12:13AM 40.3050 -84.0825 101° East 429 494 35,000  Level Indianapolis Center
12:14AM 40.2803 -83.9261 102° East 431 496 35,000  Level Indianapolis Center
12:15AM 40.2564 -83.7711 101° East 431 496 35,000  Level Indianapolis Center
12:16AM 40.2314 -83.6139 102° East 434 499 35,000  Level Indianapolis Center
12:17AM 40.2056 -83.4550 102° East 438 504 35,000  Level Indianapolis Center
12:18AM 40.1792 -83.2978 102° East 435 501 35,000  Level Indianapolis Center
12:19AM 40.1528 -83.1403 102° East 436 502 35,000  Level Indianapolis Center
12:20AM 40.1264 -82.9842 102° East 434 499 35,000  Level Indianapolis Center
12:21AM 40.1000 -82.8267 102° East 438 504 35,000  Level Indianapolis Center
12:22AM 40.0728 -82.6706 103° East 437 503 35,000  Level Indianapolis Center
12:23AM 40.0467 -82.5147 102° East 436 502 35,000  Level Indianapolis Center
12:24AM 40.0247 -82.3853 102° East 434 499 35,000  Level Indianapolis Center
12:25AM 39.9978 -82.2314 103° East 433 498 35,000  Level Indianapolis Center
12:26AM 39.9703 -82.0750 103° East 436 502 35,000  Level Indianapolis Center
12:27AM 39.9425 -81.9183 103° East 439 505 35,000  Level Indianapolis Center
12:28AM 39.9150 -81.7631 103° East 438 504 35,000  Level Indianapolis Center
12:29AM 39.8869 -81.6081 103° East 436 502 35,000  Level Indianapolis Center
12:30AM 39.8597 -81.4525 103° East 439 505 35,000  Level Indianapolis Center
12:31AM 39.8353 -81.3053 102° East 438 504 35,000  Level Indianapolis Center
12:32AM 39.8075 -81.1500 103° East 438 504 35,000  Level Indianapolis Center
12:33AM 39.7806 -80.9936 103° East 442 509 35,000  Level Indianapolis Center
12:34AM 39.7539 -80.8378 103° East 442 509 35,000  Level Indianapolis Center
12:35AM 39.7250 -80.6819 104° East 441 507 35,000  Level Indianapolis Center
12:36AM 39.6964 -80.5242 103° East 447 514 35,000  Level Indianapolis Center
12:37AM 39.6686 -80.3664 103° East 448 516 35,000  Level Indianapolis Center
12:38AM 39.6403 -80.2069 103° East 451 519 35,000  Level Indianapolis Center
12:39AM 39.6247 -80.1153 102° East 440 506 35,000  Level Washington Center
12:40AM 39.5972 -79.9572 103° East 440 506 35,000  Level Washington Center
12:41AM 39.5653 -79.7964 104° East 445 512 35,000 -120 Level Washington Center
12:42AM 39.5333 -79.6358 104° East 445 512 34,800 -1,800 Descending Washington Center
12:43AM 39.4989 -79.4753 105° East 457 526 31,500 -3,240 Descending Washington Center
12:44AM 39.4647 -79.3094 105° East 462 532 28,400 -3,240 Descending Washington Center
12:45AM 39.4261 -79.1328 106° East 462 532 25,000 -3,180 Descending Washington Center
12:46AM 39.3892 -78.9753 107° East 462 532 22,000 -2,640 Descending Washington Center
12:47AM 39.3536 -78.8206 107° East 452 520 19,800 -2,400 Descending Washington Center
12:48AM 39.3242 -78.6769 105° East 439 505 17,300 -2,580 Descending Washington Center
12:49AM 39.2922 -78.5389 107° East 416 479 14,700 -2,400 Descending Washington Center
12:50AM 39.2642 -78.4064 105° East 396 456 12,500 -1,920 Descending Washington Center
12:51AM 39.2461 -78.2797 100° East 376 433 10,900 -1,200 Descending Washington Center
12:52AM 39.2319 -78.1586 99° East 353 406 10,200 -1,200 Descending Washington Center
12:53AM 39.2217 -78.0564 97° East 320 368 8,600 -1,440 Descending Washington Center
12:54AM 39.2069 -77.9567 101° East 292 336 7,300 -1,320 Descending Washington Center
12:55AM 39.1964 -77.8600 98° East 277 319 6,000 -1,080 Descending Washington Center
12:56AM 39.1836 -77.7633 100° East 272 313 5,200 -960 Descending Washington Center
12:58AM 39.1500 -77.6167 106° East 269 310 3,500 -1,020 Descending Potomac TRACON